Aérodrome :
LOGIN :

S'inscrire | Disclaimer

   EN    FR    IT 

 










Légende :    VFR   VFR Marginal   IFR   IFR Intensif   IFR Très Intensif
Visi : 
Plafond : 
>= 8 km
>= 3000ft
5 à 8 km
1000 à 3000 ft
1500m à 5 km
500 à 1000 ft
800 à 1500m
200 à 500 ft
< 800m
< 200 ft
Symboles :   Orages  Brouillard  Fortes neiges  Fortes précipitations  Vent > 20 kt
SIGMETs :   Divers  Orages  Givrage  Turbulence  Onde Orograph.  Cendres Volcan.






- Altitude de l'aérodrome : 512 ft
- Code IATA : URO


LFOP - Rouen Vallée de Seine

DERNIER METAR :
  • 250430Z AUTO 07005KT 0550 0500 R22/0600N FG VV/// 00/00 Q1020

METARs EXPIRÉS :
  • 250400Z AUTO 11003KT 0350 R22/0400N FG VV/// 01/01 Q1020
  • 250330Z AUTO 11003KT 0350 R22/0450N FG VV/// 01/01 Q1020
  • 250300Z AUTO 12002KT 0300 R22/0375N FG VV/// 01/01 Q1020
  • 250230Z AUTO VRB02KT 0250 R22/0300N FG VV/// 01/01 Q1021
  • 250200Z AUTO VRB02KT 0250 R22/0300N FG VV/// 01/01 Q1021

TAF AMD TAF LFOP
Valide du 24 à 20h jusqu'au 25 à 18h UTC


242009Z 2420/2518 15003KT 0300 FG VV///
TEMPO 2512/2516 0800
ATIS : +33 2 35 80 80 34
Météo : +33 2 32 86 52 80



MET'MAP, la Météo Aéronautique d'un coup d'oeil ! - Copyright ORBIFLY Décembre 2007 - Disclaimer

ORBIFLY MET'MAP TEAM :

Programmation & Développement : Alexandra Zaïnal
Sur une idée originale de : Baudouin d'Aumeries
Assistance à la programmation : Marc-Olivier Méhu
Soutien technique & logistique : Manuel Goepfert

Contact : metmap@orbifly.com




SOURCES & CREDITS :

   NOAA